Lorton, Virginia
Current Conditions -  °F | °C
As of 12:58 PM on Saturday 20 Dec 2014 (Local Time) from KDAA Reporting Station
Overcast Overcast  
Wind Chill: 36°   Ceiling: 12000
Heat Index: 36°   Visibility: 10mi
Dew Point: 21°   Wind: 0mph
Humidity: 53%   Direction: NA
Pressure: 30.29"   Gusts: NA
Location:  38.7°N, 77.21°W
Report Text: KDAA 201758Z AUTO 00000KT 10SM OVC120 02/M06 A3029 RMK AO2 SLP261 T00241062 10024 21064 57015
Loading
Personal Weather Stations






























Interactive Weather Map New forecast layout! Learn more

10-Day Weather Forecast

Advertisements
Track Severe Weather on mobile